Аэропорт: Ровно. Ровно

ICAO: UKLR

METAR:
2020-08-13 11:00:00
UKLR 131100Z VRB01MPS 9999 BKN032 22/10 Q1018 R11/090070 NOSIG
METAR:
2020-08-13 08:05:00
TAF UKLR 130805Z 1309/1318 11003MPS 9999 SCT026